sensor_id;sensor_type;location;lat;lon;timestamp;P1;durP1;ratioP1;P2;durP2;ratioP2
21488;SDS011;10906;45.194;5.684;2023-04-24T05:10:37;9.70;;;1.90;;
21488;SDS011;10906;45.194;5.684;2023-04-24T05:13:56;6.78;;;1.90;;
21488;SDS011;10906;45.194;5.684;2023-04-24T05:17:12;3.58;;;1.65;;
21488;SDS011;10906;45.194;5.684;2023-04-24T05:24:18;7.65;;;2.40;;
21488;SDS011;10906;45.194;5.684;2023-04-24T05:27:42;5.97;;;2.03;;
21488;SDS011;10906;45.194;5.684;2023-04-24T05:52:15;7.55;;;2.33;;
21488;SDS011;10906;45.194;5.684;2023-04-24T06:13:36;8.13;;;2.63;;
21488;SDS011;10906;45.194;5.684;2023-04-24T06:16:41;10.75;;;2.40;;
21488;SDS011;10906;45.194;5.684;2023-04-24T06:19:29;10.80;;;2.63;;
21488;SDS011;10906;45.194;5.684;2023-04-24T06:22:16;6.38;;;2.97;;
21488;SDS011;10906;45.194;5.684;2023-04-24T06:25:03;7.10;;;2.95;;
21488;SDS011;10906;45.194;5.684;2023-04-24T06:27:58;6.45;;;2.70;;
21488;SDS011;10906;45.194;5.684;2023-04-24T06:31:41;5.32;;;2.45;;
21488;SDS011;10906;45.194;5.684;2023-04-24T06:35:22;8.60;;;3.40;;
21488;SDS011;10906;45.194;5.684;2023-04-24T06:48:58;4.13;;;3.03;;
21488;SDS011;10906;45.194;5.684;2023-04-24T06:55:39;6.85;;;3.17;;
21488;SDS011;10906;45.194;5.684;2023-04-24T07:02:50;16.02;;;3.22;;
21488;SDS011;10906;45.194;5.684;2023-04-24T07:14:08;5.40;;;2.05;;
21488;SDS011;10906;45.194;5.684;2023-04-24T07:17:43;6.13;;;2.05;;
21488;SDS011;10906;45.194;5.684;2023-04-24T07:24:19;2.88;;;1.25;;
21488;SDS011;10906;45.194;5.684;2023-04-24T07:27:55;8.20;;;2.03;;
21488;SDS011;10906;45.194;5.684;2023-04-24T07:31:14;6.18;;;1.88;;
21488;SDS011;10906;45.194;5.684;2023-04-24T07:34:29;3.55;;;1.42;;
21488;SDS011;10906;45.194;5.684;2023-04-24T07:37:53;3.92;;;1.30;;
21488;SDS011;10906;45.194;5.684;2023-04-24T07:41:37;1.80;;;1.20;;
21488;SDS011;10906;45.194;5.684;2023-04-24T07:45:20;7.80;;;1.10;;
21488;SDS011;10906;45.194;5.684;2023-04-24T07:53:04;2.88;;;1.20;;
21488;SDS011;10906;45.194;5.684;2023-04-24T07:56:26;2.40;;;1.20;;
21488;SDS011;10906;45.194;5.684;2023-04-24T08:08:55;6.88;;;2.17;;
21488;SDS011;10906;45.194;5.684;2023-04-24T13:35:46;1.90;;;0.82;;
21488;SDS011;10906;45.194;5.684;2023-04-24T13:41:55;2.30;;;1.00;;
21488;SDS011;10906;45.194;5.684;2023-04-24T13:44:40;2.95;;;1.02;;
21488;SDS011;10906;45.194;5.684;2023-04-24T13:47:24;6.28;;;1.20;;
21488;SDS011;10906;45.194;5.684;2023-04-24T13:50:09;1.70;;;1.15;;
21488;SDS011;10906;45.194;5.684;2023-04-24T13:52:54;1.88;;;1.38;;
21488;SDS011;10906;45.194;5.684;2023-04-24T13:55:40;1.77;;;0.70;;
21488;SDS011;10906;45.194;5.684;2023-04-24T13:58:37;1.48;;;0.82;;
21488;SDS011;10906;45.194;5.684;2023-04-24T14:07:12;4.32;;;1.33;;
21488;SDS011;10906;45.194;5.684;2023-04-24T14:10:00;1.88;;;1.08;;
21488;SDS011;10906;45.194;5.684;2023-04-24T14:12:45;2.38;;;1.05;;
21488;SDS011;10906;45.194;5.684;2023-04-24T14:15:30;2.50;;;1.00;;
21488;SDS011;10906;45.194;5.684;2023-04-24T14:18:36;5.72;;;1.58;;
21488;SDS011;10906;45.194;5.684;2023-04-24T14:21:40;5.15;;;1.17;;
21488;SDS011;10906;45.194;5.684;2023-04-24T14:24:25;6.43;;;1.00;;
21488;SDS011;10906;45.194;5.684;2023-04-24T14:27:16;1.70;;;1.10;;
21488;SDS011;10906;45.194;5.684;2023-04-24T14:30:00;4.65;;;1.38;;
21488;SDS011;10906;45.194;5.684;2023-04-24T14:36:24;1.48;;;1.00;;
21488;SDS011;10906;45.194;5.684;2023-04-24T14:39:09;2.50;;;1.20;;
21488;SDS011;10906;45.194;5.684;2023-04-24T14:41:54;1.80;;;1.20;;
21488;SDS011;10906;45.194;5.684;2023-04-24T14:44:39;2.35;;;1.10;;
21488;SDS011;10906;45.194;5.684;2023-04-24T14:47:24;1.75;;;1.13;;
21488;SDS011;10906;45.194;5.684;2023-04-24T14:50:09;2.88;;;1.35;;
21488;SDS011;10906;45.194;5.684;2023-04-24T14:52:54;4.18;;;1.55;;
21488;SDS011;10906;45.194;5.684;2023-04-24T14:55:42;2.63;;;1.08;;
21488;SDS011;10906;45.194;5.684;2023-04-24T14:58:27;3.65;;;0.98;;
21488;SDS011;10906;45.194;5.684;2023-04-24T15:01:12;1.70;;;1.15;;
21488;SDS011;10906;45.194;5.684;2023-04-24T15:03:57;2.58;;;1.17;;
21488;SDS011;10906;45.194;5.684;2023-04-24T15:06:42;2.67;;;1.17;;
21488;SDS011;10906;45.194;5.684;2023-04-24T15:09:26;2.70;;;1.13;;
21488;SDS011;10906;45.194;5.684;2023-04-24T15:12:14;1.65;;;0.95;;
21488;SDS011;10906;45.194;5.684;2023-04-24T15:21:08;5.03;;;1.73;;
21488;SDS011;10906;45.194;5.684;2023-04-24T15:23:52;2.22;;;1.25;;
21488;SDS011;10906;45.194;5.684;2023-04-24T15:26:38;2.03;;;1.23;;
21488;SDS011;10906;45.194;5.684;2023-04-24T15:29:23;1.48;;;1.08;;
21488;SDS011;10906;45.194;5.684;2023-04-24T15:32:08;3.72;;;1.10;;
21488;SDS011;10906;45.194;5.684;2023-04-24T15:34:55;4.07;;;1.02;;
21488;SDS011;10906;45.194;5.684;2023-04-24T15:37:39;1.70;;;1.05;;
21488;SDS011;10906;45.194;5.684;2023-04-24T15:40:25;5.03;;;1.10;;
21488;SDS011;10906;45.194;5.684;2023-04-24T15:43:10;5.80;;;1.02;;
21488;SDS011;10906;45.194;5.684;2023-04-24T15:45:58;2.20;;;1.23;;
21488;SDS011;10906;45.194;5.684;2023-04-24T15:48:43;4.93;;;1.42;;
21488;SDS011;10906;45.194;5.684;2023-04-24T15:51:28;2.17;;;1.10;;
21488;SDS011;10906;45.194;5.684;2023-04-24T15:54:13;2.42;;;1.40;;
21488;SDS011;10906;45.194;5.684;2023-04-24T15:56:57;3.88;;;1.08;;
21488;SDS011;10906;45.194;5.684;2023-04-24T15:59:43;3.95;;;0.93;;
21488;SDS011;10906;45.194;5.684;2023-04-24T16:02:29;3.03;;;1.23;;
21488;SDS011;10906;45.194;5.684;2023-04-24T16:13:29;4.15;;;1.17;;
21488;SDS011;10906;45.194;5.684;2023-04-24T16:17:25;2.78;;;1.10;;
21488;SDS011;10906;45.194;5.684;2023-04-24T17:49:47;3.55;;;1.38;;
21488;SDS011;10906;45.194;5.684;2023-04-24T17:52:32;3.03;;;1.15;;
21488;SDS011;10906;45.194;5.684;2023-04-24T17:55:22;4.13;;;1.30;;
21488;SDS011;10906;45.194;5.684;2023-04-24T17:58:10;2.90;;;1.20;;
21488;SDS011;10906;45.194;5.684;2023-04-24T18:01:01;6.40;;;1.40;;
21488;SDS011;10906;45.194;5.684;2023-04-24T18:04:02;4.43;;;1.80;;
21488;SDS011;10906;45.194;5.684;2023-04-24T18:06:49;3.67;;;1.65;;
21488;SDS011;10906;45.194;5.684;2023-04-24T18:12:56;2.38;;;1.50;;
21488;SDS011;10906;45.194;5.684;2023-04-24T19:23:25;5.38;;;1.88;;
21488;SDS011;10906;45.194;5.684;2023-04-24T20:05:59;14.13;;;2.58;;
21488;SDS011;10906;45.194;5.684;2023-04-24T20:20:20;4.43;;;1.55;;
21488;SDS011;10906;45.194;5.684;2023-04-24T20:23:07;4.47;;;1.80;;
21488;SDS011;10906;45.194;5.684;2023-04-24T20:25:51;4.20;;;1.77;;
21488;SDS011;10906;45.194;5.684;2023-04-24T20:28:40;3.38;;;1.45;;
21488;SDS011;10906;45.194;5.684;2023-04-24T20:31:25;3.25;;;1.40;;
21488;SDS011;10906;45.194;5.684;2023-04-24T20:34:10;5.95;;;1.67;;
21488;SDS011;10906;45.194;5.684;2023-04-24T20:36:55;3.28;;;1.50;;
21488;SDS011;10906;45.194;5.684;2023-04-24T20:39:41;5.15;;;1.65;;
21488;SDS011;10906;45.194;5.684;2023-04-24T20:42:27;4.30;;;1.63;;
21488;SDS011;10906;45.194;5.684;2023-04-24T20:45:12;6.55;;;2.03;;
21488;SDS011;10906;45.194;5.684;2023-04-24T20:47:57;3.85;;;1.98;;
21488;SDS011;10906;45.194;5.684;2023-04-24T20:50:42;4.38;;;1.77;;
21488;SDS011;10906;45.194;5.684;2023-04-24T20:53:30;9.40;;;1.90;;
21488;SDS011;10906;45.194;5.684;2023-04-24T20:56:17;4.50;;;1.92;;
21488;SDS011;10906;45.194;5.684;2023-04-24T20:59:03;5.07;;;2.30;;
21488;SDS011;10906;45.194;5.684;2023-04-24T21:01:48;9.25;;;2.40;;
21488;SDS011;10906;45.194;5.684;2023-04-24T21:04:38;6.68;;;2.33;;
21488;SDS011;10906;45.194;5.684;2023-04-24T21:07:33;5.95;;;2.25;;
21488;SDS011;10906;45.194;5.684;2023-04-24T21:10:20;4.50;;;2.03;;
21488;SDS011;10906;45.194;5.684;2023-04-24T21:13:09;4.68;;;1.88;;
21488;SDS011;10906;45.194;5.684;2023-04-24T21:15:56;5.63;;;2.65;;
21488;SDS011;10906;45.194;5.684;2023-04-24T21:18:46;4.43;;;1.65;;
21488;SDS011;10906;45.194;5.684;2023-04-24T21:21:31;4.78;;;1.80;;
21488;SDS011;10906;45.194;5.684;2023-04-24T21:24:16;4.40;;;1.80;;
21488;SDS011;10906;45.194;5.684;2023-04-24T21:27:01;9.23;;;2.17;;
21488;SDS011;10906;45.194;5.684;2023-04-24T21:29:46;3.67;;;1.40;;
21488;SDS011;10906;45.194;5.684;2023-04-24T21:32:36;6.30;;;2.03;;
21488;SDS011;10906;45.194;5.684;2023-04-24T21:35:23;7.60;;;2.33;;
21488;SDS011;10906;45.194;5.684;2023-04-24T21:38:15;4.13;;;1.90;;
21488;SDS011;10906;45.194;5.684;2023-04-24T21:41:13;4.95;;;2.05;;
21488;SDS011;10906;45.194;5.684;2023-04-24T21:43:58;3.95;;;1.77;;
21488;SDS011;10906;45.194;5.684;2023-04-24T21:46:48;3.10;;;1.83;;
21488;SDS011;10906;45.194;5.684;2023-04-24T21:49:35;3.85;;;1.92;;
21488;SDS011;10906;45.194;5.684;2023-04-24T21:52:22;3.80;;;1.42;;
21488;SDS011;10906;45.194;5.684;2023-04-24T21:55:14;2.97;;;1.50;;
21488;SDS011;10906;45.194;5.684;2023-04-24T21:58:04;9.43;;;2.40;;
